Terminal Aerodrome Forecast
Issued by NWS

Home | Current Version | Previous Version | Text Only | Print | Product List | Glossary On
Versions: 1 2 3 4 5 6 7 8 9 10 11 12 13 14 15 16 17 18 19 20 21
409
FTUS46 KMFR 221744
TAFOTH
TAF
KOTH 221744Z 2218/2318 13006KT P6SM FEW005 FEW027 BKN040
     FM222000 32008KT P6SM -SHRA SCT025 BKN035 BKN060
     FM230000 29012KT P6SM -SHRA SCT025 BKN035 BKN060
     FM230400 16005KT P6SM SCT035 BKN050=

USA.gov is the U.S. government's official web portal to all federal, state and local government web resources and services.